createdAt,value
2018-08-27T00:00:09.663Z,11.50
2018-08-27T00:02:38.297Z,11.50
2018-08-27T00:05:07.031Z,11.40
2018-08-27T00:07:35.791Z,11.40
2018-08-27T00:10:04.427Z,11.40
2018-08-27T00:12:33.015Z,11.40
2018-08-27T00:15:01.629Z,11.40
2018-08-27T00:17:30.283Z,11.40
2018-08-27T00:19:58.840Z,11.30
2018-08-27T00:22:27.501Z,11.30
2018-08-27T00:24:56.017Z,11.30
2018-08-27T00:27:24.547Z,11.30
2018-08-27T00:29:53.217Z,11.30
2018-08-27T00:32:22.079Z,11.30
2018-08-27T00:34:50.584Z,11.20
2018-08-27T00:37:19.255Z,11.20
2018-08-27T00:39:47.959Z,11.20
2018-08-27T00:42:16.743Z,11.20
2018-08-27T00:44:45.569Z,11.20
2018-08-27T00:47:14.317Z,11.20
2018-08-27T00:49:43.051Z,11.20
2018-08-27T00:52:11.707Z,11.20
2018-08-27T00:54:40.298Z,11.20
2018-08-27T00:57:08.866Z,11.10
2018-08-27T00:59:37.445Z,11.10
2018-08-27T01:02:05.973Z,11.10
2018-08-27T01:04:34.578Z,11.00
2018-08-27T01:07:03.171Z,11.00
2018-08-27T01:09:31.716Z,11.00
2018-08-27T01:12:00.226Z,11.00
2018-08-27T01:14:28.745Z,11.00
2018-08-27T01:16:57.384Z,11.00
2018-08-27T01:19:26.189Z,11.00
2018-08-27T01:21:54.683Z,11.00
2018-08-27T01:24:23.293Z,11.00
2018-08-27T01:26:51.919Z,10.90
2018-08-27T01:29:20.487Z,10.90
2018-08-27T01:31:54.515Z,10.90
2018-08-27T01:34:23.107Z,10.90
2018-08-27T01:36:51.687Z,10.90
2018-08-27T01:39:20.193Z,10.90
2018-08-27T01:41:48.786Z,10.80
2018-08-27T01:44:17.354Z,10.80
2018-08-27T01:46:45.986Z,10.80
2018-08-27T01:49:14.759Z,10.80
2018-08-27T01:51:43.450Z,10.80
2018-08-27T01:54:12.163Z,10.80
2018-08-27T01:56:40.934Z,10.80
2018-08-27T01:59:09.569Z,10.80
2018-08-27T02:01:38.783Z,10.70
2018-08-27T02:04:07.516Z,10.70
2018-08-27T02:06:38.451Z,10.70
2018-08-27T02:09:09.058Z,10.70
2018-08-27T02:11:37.956Z,10.70
2018-08-27T02:14:06.868Z,10.70
2018-08-27T02:16:35.735Z,10.60
2018-08-27T02:19:05.771Z,10.60
2018-08-27T02:21:35.609Z,10.60
2018-08-27T02:24:04.303Z,10.60
2018-08-27T02:26:32.911Z,10.60
2018-08-27T02:29:02.957Z,10.60
2018-08-27T02:31:31.471Z,10.60
2018-08-27T02:34:00.055Z,10.60
2018-08-27T02:36:28.623Z,10.60
2018-08-27T02:38:57.189Z,10.60
2018-08-27T02:41:25.863Z,10.60
2018-08-27T02:43:54.625Z,10.60
2018-08-27T02:46:23.141Z,10.60
2018-08-27T02:48:51.787Z,10.50
2018-08-27T02:51:20.716Z,10.50
2018-08-27T02:53:49.295Z,10.50
2018-08-27T02:56:17.927Z,10.50
2018-08-27T02:58:46.547Z,10.50
2018-08-27T03:01:15.105Z,10.50
2018-08-27T03:03:43.674Z,10.50
2018-08-27T03:06:12.299Z,10.50
2018-08-27T03:08:41.239Z,10.50
2018-08-27T03:11:10.362Z,10.50
2018-08-27T03:13:39.742Z,10.50
2018-08-27T03:16:08.486Z,10.50
2018-08-27T03:18:37.216Z,10.50
2018-08-27T03:21:05.778Z,10.50
2018-08-27T03:23:34.392Z,10.50
2018-08-27T03:26:03.456Z,10.50
2018-08-27T03:28:32.039Z,10.50
2018-08-27T03:31:00.706Z,10.50
2018-08-27T03:33:29.278Z,10.50
2018-08-27T03:35:58.076Z,10.60
2018-08-27T03:38:26.602Z,10.60
2018-08-27T03:40:55.143Z,10.60
2018-08-27T03:43:23.730Z,10.60
2018-08-27T03:45:52.343Z,10.60
2018-08-27T03:48:20.926Z,10.60
2018-08-27T03:50:49.478Z,10.60
2018-08-27T03:53:18.150Z,10.70
2018-08-27T03:55:46.828Z,10.70
2018-08-27T03:58:15.445Z,10.70
2018-08-27T04:00:44.192Z,10.70
2018-08-27T04:03:13.068Z,10.70
2018-08-27T04:05:41.923Z,10.70
2018-08-27T04:08:11.479Z,10.70
2018-08-27T04:10:42.960Z,10.70
2018-08-27T04:13:11.883Z,10.70
2018-08-27T04:15:40.580Z,10.70
2018-08-27T04:18:09.400Z,10.70
2018-08-27T04:20:38.259Z,10.70
2018-08-27T04:23:07.223Z,10.70
2018-08-27T04:25:35.912Z,10.70
2018-08-27T04:28:04.586Z,10.70
2018-08-27T04:30:33.375Z,10.70
2018-08-27T04:33:02.670Z,10.70
2018-08-27T04:35:31.472Z,10.70
2018-08-27T04:38:00.320Z,10.80
2018-08-27T04:40:28.949Z,10.80
2018-08-27T04:42:57.861Z,10.80
2018-08-27T04:45:26.437Z,10.80
2018-08-27T04:47:54.994Z,10.90
2018-08-27T04:50:23.540Z,10.90
2018-08-27T04:52:52.123Z,10.90
2018-08-27T04:55:20.688Z,10.90
2018-08-27T04:57:49.524Z,11.00
2018-08-27T05:00:28.460Z,11.00
2018-08-27T05:02:57.704Z,11.10
2018-08-27T05:05:26.566Z,11.10
2018-08-27T05:07:55.328Z,11.10
2018-08-27T05:10:23.936Z,11.10
2018-08-27T05:12:53.068Z,11.20
2018-08-27T05:15:21.661Z,11.20
2018-08-27T05:17:50.326Z,11.30
2018-08-27T05:20:19.040Z,11.30
2018-08-27T05:22:47.728Z,11.30
2018-08-27T05:25:16.455Z,11.40
2018-08-27T05:27:45.158Z,11.40
2018-08-27T05:30:13.776Z,11.50
2018-08-27T05:32:42.394Z,11.50
2018-08-27T05:35:11.216Z,11.50
2018-08-27T05:37:40.207Z,11.60
2018-08-27T05:40:10.281Z,11.60
2018-08-27T05:42:39.390Z,11.70
2018-08-27T05:45:08.231Z,11.70
2018-08-27T05:47:37.846Z,11.70
2018-08-27T05:50:06.605Z,11.80
2018-08-27T05:52:35.502Z,11.90
2018-08-27T05:55:05.323Z,11.90
2018-08-27T05:57:33.893Z,12.00
2018-08-27T06:02:37.285Z,12.10
2018-08-27T06:05:05.944Z,12.20
2018-08-27T06:07:34.668Z,12.30
2018-08-27T06:10:03.324Z,12.40
2018-08-27T06:12:32.173Z,12.50
2018-08-27T06:15:00.825Z,12.60
2018-08-27T06:17:30.844Z,12.70
2018-08-27T06:19:59.717Z,12.90
2018-08-27T06:22:28.392Z,13.00
2018-08-27T06:24:56.903Z,13.10
2018-08-27T06:27:25.639Z,13.30
2018-08-27T06:29:54.236Z,13.50
2018-08-27T06:32:22.937Z,13.60
2018-08-27T06:34:51.465Z,13.80
2018-08-27T06:37:20.112Z,14.00
2018-08-27T06:39:48.724Z,14.20
2018-08-27T06:42:17.325Z,14.40
2018-08-27T06:44:46.240Z,14.60
2018-08-27T06:47:15.015Z,14.70
2018-08-27T06:49:43.595Z,14.90
2018-08-27T06:52:12.238Z,15.10
2018-08-27T06:54:40.848Z,15.30
2018-08-27T06:57:09.441Z,15.40
2018-08-27T06:59:38.020Z,15.60
2018-08-27T07:02:06.939Z,15.80
2018-08-27T07:04:35.839Z,15.90
2018-08-27T07:07:05.994Z,16.00
2018-08-27T07:09:34.500Z,16.10
2018-08-27T07:12:07.208Z,16.20
2018-08-27T07:14:35.706Z,16.30
2018-08-27T07:17:04.340Z,16.40
2018-08-27T07:19:32.879Z,16.60
2018-08-27T07:22:01.404Z,16.70
2018-08-27T07:24:29.940Z,16.80
2018-08-27T07:26:58.504Z,16.90
2018-08-27T07:29:27.096Z,17.00
2018-08-27T07:31:55.641Z,17.10
2018-08-27T07:34:24.247Z,17.20
2018-08-27T07:36:52.804Z,17.20
2018-08-27T07:39:21.412Z,17.30
2018-08-27T07:41:50.095Z,17.30
2018-08-27T07:44:19.044Z,17.40
2018-08-27T07:46:47.551Z,17.50
2018-08-27T07:49:16.432Z,17.60
2018-08-27T07:51:44.984Z,17.60
2018-08-27T07:54:13.561Z,17.70
2018-08-27T07:56:42.091Z,17.80
2018-08-27T07:59:10.701Z,17.80
2018-08-27T08:01:39.208Z,17.90
2018-08-27T08:04:07.827Z,18.00
2018-08-27T08:06:37.355Z,18.00
2018-08-27T08:09:08.167Z,18.00
2018-08-27T08:11:36.840Z,18.10
2018-08-27T08:14:05.483Z,18.30
2018-08-27T08:16:34.383Z,18.40
2018-08-27T08:19:03.109Z,18.40
2018-08-27T08:21:31.700Z,18.50
2018-08-27T08:24:00.564Z,18.60
2018-08-27T08:26:29.104Z,18.60
2018-08-27T08:28:57.579Z,18.80
2018-08-27T08:31:26.125Z,18.80
2018-08-27T08:33:54.628Z,18.90
2018-08-27T08:36:23.191Z,19.10
2018-08-27T08:38:51.768Z,19.10
2018-08-27T08:41:20.299Z,19.20
2018-08-27T08:43:48.807Z,19.20
2018-08-27T08:46:17.335Z,19.30
2018-08-27T08:48:45.947Z,19.60
2018-08-27T08:51:14.562Z,19.50
2018-08-27T08:53:43.187Z,19.60
2018-08-27T08:56:11.973Z,19.60
2018-08-27T08:58:40.500Z,19.80
2018-08-27T09:01:09.129Z,19.70
2018-08-27T09:03:37.606Z,19.70
2018-08-27T09:06:06.167Z,19.70
2018-08-27T09:08:35.433Z,19.80
2018-08-27T09:11:03.992Z,19.80
2018-08-27T09:13:32.516Z,20.00
2018-08-27T09:16:04.018Z,20.10
2018-08-27T09:18:32.530Z,20.10
2018-08-27T09:21:01.192Z,20.10
2018-08-27T09:23:29.767Z,20.30
2018-08-27T09:25:58.304Z,20.50
2018-08-27T09:28:26.853Z,20.40
2018-08-27T09:30:55.400Z,20.50
2018-08-27T09:33:25.730Z,20.50
2018-08-27T09:35:54.319Z,20.40
2018-08-27T09:38:23.296Z,20.60
2018-08-27T09:40:51.822Z,20.80
2018-08-27T09:43:20.360Z,21.10
2018-08-27T09:45:48.902Z,21.20
2018-08-27T09:48:19.780Z,21.20
2018-08-27T09:50:48.367Z,21.30
2018-08-27T09:53:17.042Z,21.40
2018-08-27T09:55:45.495Z,21.40
2018-08-27T09:58:14.114Z,21.40
2018-08-27T10:00:47.855Z,21.40
2018-08-27T10:03:16.432Z,21.50
2018-08-27T10:05:44.944Z,21.70
2018-08-27T10:08:13.599Z,21.60
2018-08-27T10:10:42.164Z,21.70
2018-08-27T10:13:10.881Z,21.80
2018-08-27T10:15:39.438Z,22.00
2018-08-27T10:18:07.979Z,22.00
2018-08-27T10:20:37.466Z,22.10
2018-08-27T10:23:06.254Z,22.00
2018-08-27T10:25:34.835Z,22.20
2018-08-27T10:28:03.405Z,22.40
2018-08-27T10:30:31.949Z,22.30
2018-08-27T10:33:00.463Z,22.20
2018-08-27T10:35:28.971Z,22.40
2018-08-27T10:37:57.504Z,22.70
2018-08-27T10:40:26.098Z,22.60
2018-08-27T10:42:54.655Z,22.50
2018-08-27T10:45:23.869Z,22.40
2018-08-27T10:47:52.379Z,22.30
2018-08-27T10:50:20.993Z,22.30
2018-08-27T10:52:49.495Z,22.40
2018-08-27T10:55:18.021Z,22.50
2018-08-27T10:57:46.504Z,22.60
2018-08-27T11:00:15.051Z,22.80
2018-08-27T11:02:43.571Z,22.90
2018-08-27T11:05:12.255Z,23.10
2018-08-27T11:07:40.763Z,23.30
2018-08-27T11:10:09.699Z,23.40
2018-08-27T11:12:38.218Z,23.50
2018-08-27T11:15:06.875Z,23.40
2018-08-27T11:17:35.424Z,23.30
2018-08-27T11:20:05.214Z,23.20
2018-08-27T11:22:33.837Z,23.50
2018-08-27T11:25:02.396Z,23.60
2018-08-27T11:27:30.971Z,23.60
2018-08-27T11:29:59.491Z,23.60
2018-08-27T11:32:28.039Z,23.50
2018-08-27T11:34:56.520Z,23.60
2018-08-27T11:37:25.387Z,23.60
2018-08-27T11:39:53.906Z,23.60
2018-08-27T11:42:22.564Z,23.60
2018-08-27T11:44:51.384Z,24.00
2018-08-27T11:47:19.953Z,24.10
2018-08-27T11:49:48.473Z,24.10
2018-08-27T11:52:17.004Z,24.30
2018-08-27T11:54:45.490Z,24.20
2018-08-27T11:57:14.141Z,24.10
2018-08-27T11:59:42.708Z,24.20
2018-08-27T12:02:11.397Z,24.20
2018-08-27T12:04:39.904Z,24.50
2018-08-27T12:07:08.422Z,24.20
2018-08-27T12:09:36.889Z,24.30
2018-08-27T12:12:05.451Z,24.50
2018-08-27T12:14:34.063Z,24.30
2018-08-27T12:17:02.680Z,24.20
2018-08-27T12:19:31.830Z,24.30
2018-08-27T12:22:00.356Z,24.40
2018-08-27T12:24:28.901Z,24.10
2018-08-27T12:26:57.416Z,24.00
2018-08-27T12:29:27.225Z,24.10
2018-08-27T12:31:55.753Z,24.20
2018-08-27T12:34:24.392Z,24.20
2018-08-27T12:36:52.900Z,24.20
2018-08-27T12:39:21.456Z,24.00
2018-08-27T12:41:50.040Z,24.30
2018-08-27T12:44:18.604Z,24.40
2018-08-27T12:46:47.195Z,24.30
2018-08-27T12:49:15.751Z,24.40
2018-08-27T12:51:44.501Z,24.60
2018-08-27T12:54:13.076Z,24.50
2018-08-27T12:56:41.964Z,24.70
2018-08-27T12:59:10.539Z,24.70
2018-08-27T13:01:39.050Z,24.60
2018-08-27T13:04:07.643Z,24.70
2018-08-27T13:06:36.244Z,24.60
2018-08-27T13:09:07.419Z,24.90
2018-08-27T13:11:35.982Z,24.70
2018-08-27T13:14:04.484Z,24.50
2018-08-27T13:16:33.010Z,24.60
2018-08-27T13:19:01.661Z,24.60
2018-08-27T13:21:30.190Z,24.70
2018-08-27T13:23:58.714Z,24.60
2018-08-27T13:26:27.278Z,24.60
2018-08-27T13:28:55.770Z,24.60
2018-08-27T13:31:24.335Z,24.50
2018-08-27T13:33:52.830Z,24.60
2018-08-27T13:36:21.338Z,24.90
2018-08-27T13:38:49.879Z,24.60
2018-08-27T13:41:18.428Z,24.40
2018-08-27T13:43:46.930Z,24.40
2018-08-27T13:46:15.438Z,24.70
2018-08-27T13:48:44.043Z,24.80
2018-08-27T13:51:12.560Z,25.00
2018-08-27T13:53:41.039Z,25.30
2018-08-27T13:56:09.675Z,25.30
2018-08-27T13:58:38.183Z,25.30
2018-08-27T14:01:06.696Z,25.10
2018-08-27T14:03:35.206Z,25.10
2018-08-27T14:06:03.744Z,25.10
2018-08-27T14:08:32.251Z,24.90
2018-08-27T14:11:00.775Z,24.90
2018-08-27T14:13:29.279Z,24.90
2018-08-27T14:15:57.801Z,25.10
2018-08-27T14:18:26.395Z,25.20
2018-08-27T14:20:55.107Z,25.20
2018-08-27T14:23:23.668Z,25.20
2018-08-27T14:25:52.220Z,25.30
2018-08-27T14:28:20.800Z,25.30
2018-08-27T14:30:49.329Z,25.10
2018-08-27T14:33:17.930Z,24.90
2018-08-27T14:35:46.510Z,24.90
2018-08-27T14:38:15.037Z,25.00
2018-08-27T14:40:43.718Z,25.10
2018-08-27T14:43:12.235Z,25.00
2018-08-27T14:45:40.762Z,25.00
2018-08-27T14:48:09.444Z,24.90
2018-08-27T14:50:37.785Z,24.90
2018-08-27T14:53:06.302Z,24.90
2018-08-27T14:55:34.923Z,24.90
2018-08-27T14:58:03.566Z,24.90
2018-08-27T15:00:32.047Z,24.80
2018-08-27T15:03:00.543Z,24.70
2018-08-27T15:05:29.090Z,24.70
2018-08-27T15:07:57.615Z,24.60
2018-08-27T15:10:26.165Z,24.50
2018-08-27T15:12:54.747Z,24.30
2018-08-27T15:15:23.287Z,24.10
2018-08-27T15:17:51.771Z,24.10
2018-08-27T15:20:20.391Z,24.10
2018-08-27T15:22:49.081Z,24.00
2018-08-27T15:25:17.704Z,24.00
2018-08-27T15:27:46.245Z,24.00
2018-08-27T15:30:14.787Z,23.90
2018-08-27T15:32:43.326Z,23.90
2018-08-27T15:35:11.877Z,23.90
2018-08-27T15:37:40.420Z,23.80
2018-08-27T15:40:09.462Z,23.80
2018-08-27T15:42:37.975Z,23.70
2018-08-27T15:45:07.907Z,23.70
2018-08-27T15:47:37.640Z,23.70
2018-08-27T15:50:06.831Z,23.60
2018-08-27T15:52:35.347Z,23.60
2018-08-27T15:55:03.933Z,23.50
2018-08-27T15:57:33.619Z,23.50
2018-08-27T16:02:36.086Z,23.40
2018-08-27T16:05:04.667Z,23.30
2018-08-27T16:07:33.285Z,23.20
2018-08-27T16:10:01.805Z,23.10
2018-08-27T16:12:30.341Z,23.10
2018-08-27T16:14:58.928Z,23.00
2018-08-27T16:17:27.478Z,22.90
2018-08-27T16:19:56.071Z,22.90
2018-08-27T16:22:24.622Z,22.80
2018-08-27T16:24:53.215Z,22.70
2018-08-27T16:27:21.755Z,22.70
2018-08-27T16:29:50.275Z,22.60
2018-08-27T16:32:18.832Z,22.50
2018-08-27T16:34:47.304Z,22.50
2018-08-27T16:37:15.877Z,22.40
2018-08-27T16:39:44.483Z,22.30
2018-08-27T16:42:12.950Z,22.20
2018-08-27T16:44:41.504Z,22.10
2018-08-27T16:47:09.983Z,22.00
2018-08-27T16:49:38.538Z,21.90
2018-08-27T16:52:07.015Z,21.90
2018-08-27T16:54:35.538Z,21.70
2018-08-27T16:57:04.171Z,21.70
2018-08-27T16:59:32.826Z,21.60
2018-08-27T17:02:03.270Z,21.50
2018-08-27T17:04:31.814Z,21.40
2018-08-27T17:07:00.387Z,21.30
2018-08-27T17:09:28.929Z,21.30
2018-08-27T17:11:57.467Z,21.20
2018-08-27T17:14:25.995Z,21.00
2018-08-27T17:16:55.187Z,20.90
2018-08-27T17:19:23.904Z,20.80
2018-08-27T17:21:52.625Z,20.70
2018-08-27T17:24:21.157Z,20.60
2018-08-27T17:26:49.710Z,20.40
2018-08-27T17:29:18.447Z,20.30
2018-08-27T17:31:47.668Z,20.20
2018-08-27T17:34:16.187Z,20.00
2018-08-27T17:36:45.546Z,19.80
2018-08-27T17:39:14.164Z,19.70
2018-08-27T17:41:43.218Z,19.60
2018-08-27T17:44:12.114Z,19.50
2018-08-27T17:46:40.724Z,19.30
2018-08-27T17:49:09.328Z,19.20
2018-08-27T17:51:37.967Z,19.10
2018-08-27T17:54:06.623Z,19.00
2018-08-27T17:56:35.275Z,18.90
2018-08-27T17:59:03.848Z,18.90
2018-08-27T18:01:32.400Z,18.80
2018-08-27T18:04:03.536Z,18.70
2018-08-27T18:06:32.047Z,18.50
2018-08-27T18:09:00.634Z,18.40
2018-08-27T18:11:29.135Z,18.30
2018-08-27T18:13:57.753Z,18.10
2018-08-27T18:16:26.375Z,18.10
2018-08-27T18:18:55.036Z,18.00
2018-08-27T18:21:23.634Z,17.90
2018-08-27T18:23:52.362Z,17.80
2018-08-27T18:26:21.106Z,17.70
2018-08-27T18:28:50.274Z,17.60
2018-08-27T18:31:18.952Z,17.60
2018-08-27T18:33:47.548Z,17.50
2018-08-27T18:36:16.172Z,17.30
2018-08-27T18:38:44.806Z,17.20
2018-08-27T18:41:13.406Z,17.10
2018-08-27T18:43:42.037Z,17.10
2018-08-27T18:46:10.663Z,17.00
2018-08-27T18:48:39.232Z,17.00
2018-08-27T18:51:07.914Z,16.90
2018-08-27T18:53:36.515Z,16.90
2018-08-27T18:56:08.387Z,16.80
2018-08-27T18:58:37.046Z,16.70
2018-08-27T19:01:06.199Z,16.60
2018-08-27T19:03:34.777Z,16.50
2018-08-27T19:06:04.775Z,16.50
2018-08-27T19:08:33.347Z,16.40
2018-08-27T19:13:38.022Z,16.40
2018-08-27T19:16:06.932Z,16.30
2018-08-27T19:18:35.561Z,16.30
2018-08-27T19:21:05.602Z,16.20
2018-08-27T19:23:34.247Z,16.20
2018-08-27T19:26:02.895Z,16.10
2018-08-27T19:28:31.538Z,16.00
2018-08-27T19:31:00.090Z,15.90
2018-08-27T19:33:28.718Z,15.90
2018-08-27T19:35:57.532Z,15.80
2018-08-27T19:38:25.954Z,15.70
2018-08-27T19:40:54.615Z,15.70
2018-08-27T19:43:23.250Z,15.60
2018-08-27T19:45:51.848Z,15.60
2018-08-27T19:48:20.399Z,15.50
2018-08-27T19:50:48.971Z,15.50
2018-08-27T19:53:17.578Z,15.40
2018-08-27T19:55:46.194Z,15.40
2018-08-27T19:58:15.044Z,15.30
2018-08-27T20:00:43.643Z,15.30
2018-08-27T20:03:12.268Z,15.30
2018-08-27T20:05:40.813Z,15.20
2018-08-27T20:08:09.332Z,15.20
2018-08-27T20:10:38.816Z,15.10
2018-08-27T20:13:07.342Z,15.10
2018-08-27T20:15:35.916Z,15.00
2018-08-27T20:18:04.506Z,15.00
2018-08-27T20:20:33.620Z,15.00
2018-08-27T20:23:01.987Z,15.00
2018-08-27T20:25:30.559Z,15.00
2018-08-27T20:27:59.103Z,14.90
2018-08-27T20:30:27.930Z,14.90
2018-08-27T20:32:56.479Z,14.90
2018-08-27T20:35:25.095Z,14.80
2018-08-27T20:37:53.639Z,14.80
2018-08-27T20:40:22.243Z,14.80
2018-08-27T20:42:50.944Z,14.70
2018-08-27T20:45:19.788Z,14.70
2018-08-27T20:47:48.548Z,14.80
2018-08-27T20:50:17.128Z,14.80
2018-08-27T20:52:46.631Z,14.80
2018-08-27T20:58:59.990Z,14.80
2018-08-27T21:01:28.654Z,14.80
2018-08-27T21:03:57.252Z,14.80
2018-08-27T21:06:25.892Z,14.80
2018-08-27T21:08:54.428Z,14.80
2018-08-27T21:11:22.941Z,14.80
2018-08-27T21:19:44.309Z,14.90
2018-08-27T21:29:39.359Z,15.00
2018-08-27T21:32:08.460Z,14.90
2018-08-27T21:34:37.007Z,14.90
2018-08-27T21:37:05.600Z,14.90
2018-08-27T21:39:34.137Z,14.90
2018-08-27T21:42:02.721Z,14.90
2018-08-27T21:44:31.319Z,14.90
2018-08-27T21:46:59.933Z,14.80
2018-08-27T21:49:28.503Z,14.80
2018-08-27T21:51:56.999Z,14.70
2018-08-27T21:54:25.498Z,14.70
2018-08-27T21:56:53.995Z,14.70
2018-08-27T21:59:22.537Z,14.60
2018-08-27T22:01:51.057Z,14.70
2018-08-27T22:04:19.634Z,14.70
2018-08-27T22:06:48.191Z,14.70
2018-08-27T22:09:21.391Z,14.70
2018-08-27T22:11:49.938Z,14.70
2018-08-27T22:14:18.578Z,14.60
2018-08-27T22:16:47.091Z,14.60
2018-08-27T22:19:15.705Z,14.60
2018-08-27T22:21:44.306Z,14.50
2018-08-27T22:24:12.833Z,14.50
2018-08-27T22:26:41.435Z,14.50
2018-08-27T22:29:09.981Z,14.60
2018-08-27T22:31:38.527Z,14.60
2018-08-27T22:34:07.117Z,14.60
2018-08-27T22:36:35.677Z,14.60
2018-08-27T22:39:05.065Z,14.70
2018-08-27T22:41:33.571Z,14.70
2018-08-27T22:44:02.103Z,14.70
2018-08-27T22:46:30.643Z,14.80
2018-08-27T22:48:59.103Z,14.80
2018-08-27T22:51:27.624Z,14.90
2018-08-27T22:53:56.108Z,14.90
2018-08-27T22:56:24.657Z,14.90
2018-08-27T22:58:53.663Z,15.00
2018-08-27T23:01:22.255Z,15.00
2018-08-27T23:03:55.981Z,15.00
2018-08-27T23:06:24.530Z,15.10
2018-08-27T23:08:53.024Z,15.10
2018-08-27T23:11:21.627Z,15.10
2018-08-27T23:13:50.161Z,15.10
2018-08-27T23:16:23.993Z,15.10
2018-08-27T23:18:52.494Z,15.20
2018-08-27T23:21:21.023Z,15.20
2018-08-27T23:23:49.527Z,15.20
2018-08-27T23:26:18.067Z,15.20
2018-08-27T23:28:46.626Z,15.20
2018-08-27T23:31:15.175Z,15.10
2018-08-27T23:33:43.830Z,15.10
2018-08-27T23:36:12.342Z,15.10
2018-08-27T23:38:40.987Z,15.10
2018-08-27T23:41:09.555Z,15.10
2018-08-27T23:43:38.084Z,15.10
2018-08-27T23:46:06.591Z,15.00
2018-08-27T23:48:35.185Z,15.00
2018-08-27T23:51:03.723Z,15.00
2018-08-27T23:53:32.429Z,15.00
2018-08-27T23:56:00.999Z,15.00
2018-08-27T23:58:29.660Z,14.90
